MBS International Airport
KMBS : rendu visible

Aérodrome :











RETROUVEZ-NOUS SUR...

 
LOGIN :

S'inscrire | Disclaimer

   EN    FR    IT 

 









Légende :    VFR   VFR Marginal   IFR   IFR Intensif   IFR Très Intensif
Visi : 
Plafond : 
>= 8 km
>= 3000ft
5 à 8 km
1000 à 3000 ft
1500m à 5 km
500 à 1000 ft
800 à 1500m
200 à 500 ft
< 800m
< 200 ft
Symboles :   Orages  Brouillard  Fortes neiges  Fortes précipitations  Vent > 20 kt







- Altitude de l'aérodrome : 668 ft
- Code IATA : MBS


KMBS - MBS International

DERNIER METAR :
  • 222153Z 18018G23KT 10SM CLR 24/08 A3000 RMK AO2 SLP159 T02390078

METARs EXPIRÉS :
  • 222053Z 17015G21KT 10SM CLR 23/08 A3001 RMK AO2 SLP162 T02330078 56023
  • 221953Z 17020G24KT 10SM CLR 24/09 A3003 RMK AO2 SLP167 T02440089

TAF KMBS
Valide du 22 à 18h jusqu'au 23 à 18h UTC


221723Z 2218/2318 18013G20KT P6SM SCT200
FM222300 18013KT P6SM OVC150
FM230800 20013KT 6SM -SHRA OVC060
FM231400 26015G25KT 6SM -SHRA BKN030 OVC045
FIR KZOB / Amérique du Nord



MET'MAP, la Météo Aéronautique d'un coup d'oeil ! - Copyright ORBIFLY Décembre 2007 - Disclaimer

ORBIFLY MET'MAP TEAM :

Programmation & Développement : Alexandra Zaïnal
Conception & Développement : Baudouin d'Aumeries
Co-Programmation & Développement : Marc-Olivier Méhu
Soutien technique & logistique : Manuel Goepfert

Contact : metmap@orbifly.com




SOURCES & CREDITS :

   NOAA       Earth
Advisory